sensor_id;sensor_type;location;lat;lon;timestamp;P1;durP1;ratioP1;P2;durP2;ratioP2
71176;SDS011;58877;51.992;4.504;2023-10-08T00:01:03;5.72;;;4.94;;
71176;SDS011;58877;51.992;4.504;2023-10-08T00:03:31;6.06;;;5.22;;
71176;SDS011;58877;51.992;4.504;2023-10-08T00:06:02;5.66;;;4.89;;
71176;SDS011;58877;51.992;4.504;2023-10-08T00:08:40;6.34;;;5.38;;
71176;SDS011;58877;51.992;4.504;2023-10-08T00:11:06;6.06;;;5.26;;
71176;SDS011;58877;51.992;4.504;2023-10-08T00:13:39;6.25;;;5.47;;
71176;SDS011;58877;51.992;4.504;2023-10-08T00:16:09;6.06;;;5.31;;
71176;SDS011;58877;51.992;4.504;2023-10-08T00:18:36;5.66;;;5.01;;
71176;SDS011;58877;51.992;4.504;2023-10-08T00:21:07;5.50;;;4.92;;
71176;SDS011;58877;51.992;4.504;2023-10-08T00:23:36;5.98;;;5.35;;
71176;SDS011;58877;51.992;4.504;2023-10-08T00:26:07;5.77;;;5.23;;
71176;SDS011;58877;51.992;4.504;2023-10-08T00:28:40;5.80;;;5.18;;
71176;SDS011;58877;51.992;4.504;2023-10-08T00:31:19;5.63;;;5.05;;
71176;SDS011;58877;51.992;4.504;2023-10-08T00:33:48;6.05;;;5.48;;
71176;SDS011;58877;51.992;4.504;2023-10-08T00:36:21;5.65;;;5.11;;
71176;SDS011;58877;51.992;4.504;2023-10-08T00:38:49;6.16;;;5.44;;
71176;SDS011;58877;51.992;4.504;2023-10-08T00:41:25;5.63;;;5.00;;
71176;SDS011;58877;51.992;4.504;2023-10-08T00:43:57;5.62;;;5.12;;
71176;SDS011;58877;51.992;4.504;2023-10-08T00:46:28;5.61;;;5.02;;
71176;SDS011;58877;51.992;4.504;2023-10-08T00:49:01;5.59;;;5.15;;
71176;SDS011;58877;51.992;4.504;2023-10-08T00:52:02;6.04;;;5.52;;
71176;SDS011;58877;51.992;4.504;2023-10-08T00:54:44;6.36;;;5.58;;
71176;SDS011;58877;51.992;4.504;2023-10-08T00:57:29;5.80;;;5.14;;
71176;SDS011;58877;51.992;4.504;2023-10-08T00:59:55;5.65;;;5.06;;
71176;SDS011;58877;51.992;4.504;2023-10-08T01:02:25;5.59;;;5.04;;
71176;SDS011;58877;51.992;4.504;2023-10-08T01:04:56;6.50;;;5.76;;
71176;SDS011;58877;51.992;4.504;2023-10-08T01:07:22;5.52;;;5.03;;
71176;SDS011;58877;51.992;4.504;2023-10-08T01:09:56;5.83;;;5.25;;
71176;SDS011;58877;51.992;4.504;2023-10-08T01:12:26;5.49;;;4.91;;
71176;SDS011;58877;51.992;4.504;2023-10-08T01:15:09;6.76;;;5.82;;
71176;SDS011;58877;51.992;4.504;2023-10-08T01:17:53;6.48;;;5.58;;
71176;SDS011;58877;51.992;4.504;2023-10-08T01:20:30;5.79;;;5.19;;
71176;SDS011;58877;51.992;4.504;2023-10-08T01:25:35;5.70;;;5.27;;
71176;SDS011;58877;51.992;4.504;2023-10-08T01:28:34;5.15;;;4.81;;
71176;SDS011;58877;51.992;4.504;2023-10-08T01:31:00;5.74;;;5.19;;
71176;SDS011;58877;51.992;4.504;2023-10-08T01:33:29;5.87;;;5.30;;
71176;SDS011;58877;51.992;4.504;2023-10-08T01:38:49;5.63;;;5.25;;
71176;SDS011;58877;51.992;4.504;2023-10-08T01:41:15;5.68;;;5.21;;
71176;SDS011;58877;51.992;4.504;2023-10-08T01:43:44;5.61;;;5.24;;
71176;SDS011;58877;51.992;4.504;2023-10-08T01:46:15;5.43;;;5.07;;
71176;SDS011;58877;51.992;4.504;2023-10-08T01:48:41;6.12;;;5.70;;
71176;SDS011;58877;51.992;4.504;2023-10-08T01:51:10;5.26;;;5.02;;
71176;SDS011;58877;51.992;4.504;2023-10-08T01:54:05;5.36;;;5.07;;
71176;SDS011;58877;51.992;4.504;2023-10-08T01:56:43;6.24;;;5.77;;
71176;SDS011;58877;51.992;4.504;2023-10-08T01:59:09;5.50;;;5.14;;
71176;SDS011;58877;51.992;4.504;2023-10-08T02:01:39;6.12;;;5.73;;
71176;SDS011;58877;51.992;4.504;2023-10-08T02:04:06;5.63;;;5.30;;
71176;SDS011;58877;51.992;4.504;2023-10-08T02:06:33;5.76;;;5.30;;
71176;SDS011;58877;51.992;4.504;2023-10-08T02:08:59;5.94;;;5.49;;
71176;SDS011;58877;51.992;4.504;2023-10-08T02:11:31;6.12;;;5.62;;
71176;SDS011;58877;51.992;4.504;2023-10-08T02:14:21;5.71;;;5.41;;
71176;SDS011;58877;51.992;4.504;2023-10-08T02:16:48;6.13;;;5.69;;
71176;SDS011;58877;51.992;4.504;2023-10-08T02:19:14;5.77;;;5.35;;
71176;SDS011;58877;51.992;4.504;2023-10-08T02:21:51;5.53;;;5.17;;
71176;SDS011;58877;51.992;4.504;2023-10-08T02:24:19;6.20;;;5.80;;
71176;SDS011;58877;51.992;4.504;2023-10-08T02:26:53;5.76;;;5.25;;
71176;SDS011;58877;51.992;4.504;2023-10-08T02:29:23;6.16;;;5.51;;
71176;SDS011;58877;51.992;4.504;2023-10-08T02:31:51;6.17;;;5.62;;
71176;SDS011;58877;51.992;4.504;2023-10-08T02:34:19;5.96;;;5.58;;
71176;SDS011;58877;51.992;4.504;2023-10-08T02:36:45;5.18;;;4.94;;
71176;SDS011;58877;51.992;4.504;2023-10-08T02:39:14;5.76;;;5.36;;
71176;SDS011;58877;51.992;4.504;2023-10-08T02:41:52;6.01;;;5.50;;
71176;SDS011;58877;51.992;4.504;2023-10-08T02:44:22;5.96;;;5.49;;
71176;SDS011;58877;51.992;4.504;2023-10-08T02:46:48;5.89;;;5.45;;
71176;SDS011;58877;51.992;4.504;2023-10-08T02:49:18;5.40;;;5.00;;
71176;SDS011;58877;51.992;4.504;2023-10-08T02:51:46;5.86;;;5.44;;
71176;SDS011;58877;51.992;4.504;2023-10-08T02:54:18;5.56;;;5.19;;
71176;SDS011;58877;51.992;4.504;2023-10-08T02:56:49;5.86;;;5.51;;
71176;SDS011;58877;51.992;4.504;2023-10-08T02:59:17;5.50;;;5.20;;
71176;SDS011;58877;51.992;4.504;2023-10-08T03:01:46;5.83;;;5.34;;
71176;SDS011;58877;51.992;4.504;2023-10-08T03:04:14;5.47;;;5.05;;
71176;SDS011;58877;51.992;4.504;2023-10-08T03:06:47;4.99;;;4.64;;
71176;SDS011;58877;51.992;4.504;2023-10-08T03:09:20;4.91;;;4.60;;
71176;SDS011;58877;51.992;4.504;2023-10-08T03:11:51;4.90;;;4.71;;
71176;SDS011;58877;51.992;4.504;2023-10-08T03:14:18;4.57;;;4.43;;
71176;SDS011;58877;51.992;4.504;2023-10-08T03:16:51;4.94;;;4.77;;
71176;SDS011;58877;51.992;4.504;2023-10-08T03:19:20;5.18;;;4.91;;
71176;SDS011;58877;51.992;4.504;2023-10-08T03:21:47;5.25;;;5.00;;
71176;SDS011;58877;51.992;4.504;2023-10-08T03:24:19;5.59;;;5.38;;
71176;SDS011;58877;51.992;4.504;2023-10-08T03:26:59;5.71;;;5.47;;
71176;SDS011;58877;51.992;4.504;2023-10-08T03:29:36;5.58;;;5.30;;
71176;SDS011;58877;51.992;4.504;2023-10-08T03:32:08;5.03;;;4.73;;
71176;SDS011;58877;51.992;4.504;2023-10-08T03:34:52;5.57;;;5.26;;
71176;SDS011;58877;51.992;4.504;2023-10-08T03:37:21;5.43;;;5.16;;
71176;SDS011;58877;51.992;4.504;2023-10-08T03:40:06;5.81;;;5.54;;
71176;SDS011;58877;51.992;4.504;2023-10-08T03:42:51;5.35;;;5.15;;
71176;SDS011;58877;51.992;4.504;2023-10-08T03:45:21;6.27;;;5.94;;
71176;SDS011;58877;51.992;4.504;2023-10-08T03:48:05;5.65;;;5.37;;
71176;SDS011;58877;51.992;4.504;2023-10-08T03:50:33;5.50;;;5.31;;
71176;SDS011;58877;51.992;4.504;2023-10-08T03:53:06;5.19;;;5.05;;
71176;SDS011;58877;51.992;4.504;2023-10-08T03:55:38;5.61;;;5.44;;
71176;SDS011;58877;51.992;4.504;2023-10-08T03:58:08;5.67;;;5.45;;
71176;SDS011;58877;51.992;4.504;2023-10-08T04:00:53;5.96;;;5.61;;
71176;SDS011;58877;51.992;4.504;2023-10-08T04:03:34;5.62;;;5.30;;
71176;SDS011;58877;51.992;4.504;2023-10-08T04:06:23;5.35;;;5.07;;
71176;SDS011;58877;51.992;4.504;2023-10-08T04:08:56;5.31;;;5.13;;
71176;SDS011;58877;51.992;4.504;2023-10-08T04:11:37;5.52;;;5.30;;
71176;SDS011;58877;51.992;4.504;2023-10-08T04:14:16;5.40;;;5.15;;
71176;SDS011;58877;51.992;4.504;2023-10-08T04:16:43;5.97;;;5.73;;
71176;SDS011;58877;51.992;4.504;2023-10-08T04:19:09;5.40;;;5.05;;
71176;SDS011;58877;51.992;4.504;2023-10-08T04:21:36;6.21;;;5.75;;
71176;SDS011;58877;51.992;4.504;2023-10-08T04:24:02;6.00;;;5.73;;
71176;SDS011;58877;51.992;4.504;2023-10-08T04:26:31;5.78;;;5.61;;
71176;SDS011;58877;51.992;4.504;2023-10-08T04:28:59;6.16;;;5.93;;
71176;SDS011;58877;51.992;4.504;2023-10-08T04:31:34;6.28;;;5.99;;
71176;SDS011;58877;51.992;4.504;2023-10-08T04:34:14;6.87;;;6.35;;
71176;SDS011;58877;51.992;4.504;2023-10-08T04:36:44;5.63;;;5.30;;
71176;SDS011;58877;51.992;4.504;2023-10-08T04:39:11;5.89;;;5.50;;
71176;SDS011;58877;51.992;4.504;2023-10-08T04:41:46;5.44;;;5.18;;
71176;SDS011;58877;51.992;4.504;2023-10-08T04:44:17;4.96;;;4.78;;
71176;SDS011;58877;51.992;4.504;2023-10-08T04:46:47;5.28;;;5.05;;
71176;SDS011;58877;51.992;4.504;2023-10-08T04:49:17;5.75;;;5.53;;
71176;SDS011;58877;51.992;4.504;2023-10-08T04:52:04;5.60;;;5.37;;
71176;SDS011;58877;51.992;4.504;2023-10-08T04:54:39;5.48;;;5.23;;
71176;SDS011;58877;51.992;4.504;2023-10-08T04:57:11;5.92;;;5.59;;
71176;SDS011;58877;51.992;4.504;2023-10-08T04:59:41;5.49;;;5.18;;
71176;SDS011;58877;51.992;4.504;2023-10-08T05:02:08;5.96;;;5.70;;
71176;SDS011;58877;51.992;4.504;2023-10-08T05:05:00;5.21;;;4.92;;
71176;SDS011;58877;51.992;4.504;2023-10-08T05:07:50;5.00;;;4.78;;
71176;SDS011;58877;51.992;4.504;2023-10-08T05:10:16;5.24;;;4.99;;
71176;SDS011;58877;51.992;4.504;2023-10-08T05:12:51;5.44;;;5.17;;
71176;SDS011;58877;51.992;4.504;2023-10-08T05:15:30;5.16;;;4.97;;
71176;SDS011;58877;51.992;4.504;2023-10-08T05:18:07;5.75;;;5.54;;
71176;SDS011;58877;51.992;4.504;2023-10-08T05:20:49;5.70;;;5.50;;
71176;SDS011;58877;51.992;4.504;2023-10-08T05:23:16;5.29;;;5.13;;
71176;SDS011;58877;51.992;4.504;2023-10-08T05:25:47;5.88;;;5.54;;
71176;SDS011;58877;51.992;4.504;2023-10-08T05:28:23;5.69;;;5.46;;
71176;SDS011;58877;51.992;4.504;2023-10-08T05:30:50;5.98;;;5.69;;
71176;SDS011;58877;51.992;4.504;2023-10-08T05:33:36;5.95;;;5.62;;
71176;SDS011;58877;51.992;4.504;2023-10-08T05:36:21;5.34;;;5.03;;
71176;SDS011;58877;51.992;4.504;2023-10-08T05:39:02;5.63;;;5.44;;
71176;SDS011;58877;51.992;4.504;2023-10-08T05:41:49;5.25;;;5.09;;
71176;SDS011;58877;51.992;4.504;2023-10-08T05:44:30;6.13;;;5.86;;
71176;SDS011;58877;51.992;4.504;2023-10-08T05:47:06;6.31;;;5.97;;
71176;SDS011;58877;51.992;4.504;2023-10-08T05:49:51;6.11;;;5.79;;
71176;SDS011;58877;51.992;4.504;2023-10-08T05:52:40;6.09;;;5.76;;
71176;SDS011;58877;51.992;4.504;2023-10-08T05:55:18;5.90;;;5.62;;
71176;SDS011;58877;51.992;4.504;2023-10-08T05:57:50;5.67;;;5.38;;
71176;SDS011;58877;51.992;4.504;2023-10-08T06:00:38;5.10;;;4.90;;
71176;SDS011;58877;51.992;4.504;2023-10-08T06:03:16;4.75;;;4.49;;
71176;SDS011;58877;51.992;4.504;2023-10-08T06:06:01;5.45;;;5.10;;
71176;SDS011;58877;51.992;4.504;2023-10-08T06:08:37;5.21;;;4.80;;
71176;SDS011;58877;51.992;4.504;2023-10-08T06:11:16;5.18;;;4.68;;
71176;SDS011;58877;51.992;4.504;2023-10-08T06:14:08;5.09;;;4.51;;
71176;SDS011;58877;51.992;4.504;2023-10-08T06:17:03;4.95;;;4.40;;
71176;SDS011;58877;51.992;4.504;2023-10-08T06:19:39;4.12;;;3.61;;
71176;SDS011;58877;51.992;4.504;2023-10-08T06:22:05;3.40;;;3.03;;
71176;SDS011;58877;51.992;4.504;2023-10-08T06:24:32;3.32;;;3.00;;
71176;SDS011;58877;51.992;4.504;2023-10-08T06:26:58;3.57;;;3.23;;
71176;SDS011;58877;51.992;4.504;2023-10-08T06:29:30;2.92;;;2.64;;
71176;SDS011;58877;51.992;4.504;2023-10-08T06:31:57;3.52;;;3.15;;
71176;SDS011;58877;51.992;4.504;2023-10-08T06:34:30;3.55;;;3.20;;
71176;SDS011;58877;51.992;4.504;2023-10-08T06:37:06;3.70;;;3.25;;
71176;SDS011;58877;51.992;4.504;2023-10-08T06:39:33;4.22;;;3.70;;
71176;SDS011;58877;51.992;4.504;2023-10-08T06:42:15;3.63;;;3.29;;
71176;SDS011;58877;51.992;4.504;2023-10-08T06:44:42;3.91;;;3.65;;
71176;SDS011;58877;51.992;4.504;2023-10-08T06:47:10;4.25;;;4.01;;
71176;SDS011;58877;51.992;4.504;2023-10-08T06:49:42;4.29;;;4.07;;
71176;SDS011;58877;51.992;4.504;2023-10-08T06:52:11;4.29;;;4.05;;
71176;SDS011;58877;51.992;4.504;2023-10-08T06:54:38;4.69;;;4.43;;
71176;SDS011;58877;51.992;4.504;2023-10-08T06:57:07;4.95;;;4.73;;
71176;SDS011;58877;51.992;4.504;2023-10-08T06:59:39;5.46;;;4.99;;
71176;SDS011;58877;51.992;4.504;2023-10-08T07:02:10;5.94;;;5.46;;
71176;SDS011;58877;51.992;4.504;2023-10-08T07:04:39;5.71;;;5.36;;
71176;SDS011;58877;51.992;4.504;2023-10-08T07:07:06;5.16;;;4.85;;
71176;SDS011;58877;51.992;4.504;2023-10-08T07:09:34;5.27;;;5.04;;
71176;SDS011;58877;51.992;4.504;2023-10-08T07:12:01;6.29;;;5.91;;
71176;SDS011;58877;51.992;4.504;2023-10-08T07:14:30;6.89;;;6.24;;
71176;SDS011;58877;51.992;4.504;2023-10-08T07:17:00;7.33;;;6.45;;
71176;SDS011;58877;51.992;4.504;2023-10-08T07:19:26;6.95;;;6.06;;
71176;SDS011;58877;51.992;4.504;2023-10-08T07:22:07;7.67;;;6.48;;
71176;SDS011;58877;51.992;4.504;2023-10-08T07:24:53;6.43;;;5.80;;
71176;SDS011;58877;51.992;4.504;2023-10-08T07:27:19;6.04;;;5.58;;
71176;SDS011;58877;51.992;4.504;2023-10-08T07:29:57;6.34;;;5.82;;
71176;SDS011;58877;51.992;4.504;2023-10-08T07:32:26;6.87;;;6.05;;
71176;SDS011;58877;51.992;4.504;2023-10-08T07:34:52;7.43;;;6.25;;
71176;SDS011;58877;51.992;4.504;2023-10-08T07:37:22;7.15;;;5.95;;
71176;SDS011;58877;51.992;4.504;2023-10-08T07:39:48;6.92;;;5.67;;
71176;SDS011;58877;51.992;4.504;2023-10-08T07:42:14;6.59;;;5.36;;
71176;SDS011;58877;51.992;4.504;2023-10-08T07:44:40;6.95;;;5.51;;
71176;SDS011;58877;51.992;4.504;2023-10-08T07:47:06;7.16;;;5.54;;
71176;SDS011;58877;51.992;4.504;2023-10-08T07:49:36;6.86;;;5.32;;
71176;SDS011;58877;51.992;4.504;2023-10-08T07:52:03;6.95;;;5.37;;
71176;SDS011;58877;51.992;4.504;2023-10-08T07:54:29;6.27;;;5.01;;
71176;SDS011;58877;51.992;4.504;2023-10-08T07:57:00;6.54;;;5.27;;
71176;SDS011;58877;51.992;4.504;2023-10-08T07:59:40;5.60;;;4.61;;
71176;SDS011;58877;51.992;4.504;2023-10-08T08:02:08;5.46;;;4.51;;
71176;SDS011;58877;51.992;4.504;2023-10-08T08:04:41;6.12;;;5.06;;
71176;SDS011;58877;51.992;4.504;2023-10-08T08:07:14;5.54;;;4.69;;
71176;SDS011;58877;51.992;4.504;2023-10-08T08:09:49;5.35;;;4.47;;
71176;SDS011;58877;51.992;4.504;2023-10-08T08:12:17;5.61;;;4.63;;
71176;SDS011;58877;51.992;4.504;2023-10-08T08:14:46;6.20;;;5.08;;
71176;SDS011;58877;51.992;4.504;2023-10-08T08:17:13;5.36;;;4.48;;
71176;SDS011;58877;51.992;4.504;2023-10-08T08:19:40;5.19;;;4.41;;
71176;SDS011;58877;51.992;4.504;2023-10-08T08:22:07;5.25;;;4.60;;
71176;SDS011;58877;51.992;4.504;2023-10-08T08:24:40;4.56;;;4.01;;
71176;SDS011;58877;51.992;4.504;2023-10-08T08:27:10;4.80;;;4.35;;
71176;SDS011;58877;51.992;4.504;2023-10-08T08:29:51;4.18;;;3.79;;
71176;SDS011;58877;51.992;4.504;2023-10-08T08:32:37;4.51;;;3.98;;
71176;SDS011;58877;51.992;4.504;2023-10-08T08:35:08;4.36;;;3.82;;
71176;SDS011;58877;51.992;4.504;2023-10-08T08:37:36;4.34;;;3.88;;
71176;SDS011;58877;51.992;4.504;2023-10-08T08:40:09;4.16;;;3.74;;
71176;SDS011;58877;51.992;4.504;2023-10-08T08:42:47;4.44;;;3.98;;
71176;SDS011;58877;51.992;4.504;2023-10-08T08:45:24;4.48;;;4.04;;
71176;SDS011;58877;51.992;4.504;2023-10-08T08:47:50;4.68;;;4.27;;
71176;SDS011;58877;51.992;4.504;2023-10-08T08:50:22;4.31;;;4.01;;
71176;SDS011;58877;51.992;4.504;2023-10-08T08:52:50;4.38;;;4.02;;
71176;SDS011;58877;51.992;4.504;2023-10-08T08:55:16;4.88;;;4.40;;
71176;SDS011;58877;51.992;4.504;2023-10-08T08:57:49;4.85;;;4.38;;
71176;SDS011;58877;51.992;4.504;2023-10-08T09:00:19;5.87;;;5.41;;
71176;SDS011;58877;51.992;4.504;2023-10-08T09:02:45;5.48;;;5.20;;
71176;SDS011;58877;51.992;4.504;2023-10-08T09:05:15;5.68;;;5.36;;
71176;SDS011;58877;51.992;4.504;2023-10-08T09:10:38;5.13;;;4.81;;
71176;SDS011;58877;51.992;4.504;2023-10-08T09:13:18;5.72;;;5.16;;
71176;SDS011;58877;51.992;4.504;2023-10-08T09:15:46;5.91;;;5.24;;
71176;SDS011;58877;51.992;4.504;2023-10-08T09:18:12;5.98;;;5.28;;
71176;SDS011;58877;51.992;4.504;2023-10-08T09:20:39;6.23;;;5.48;;
71176;SDS011;58877;51.992;4.504;2023-10-08T09:23:15;6.65;;;5.90;;
71176;SDS011;58877;51.992;4.504;2023-10-08T09:25:49;5.72;;;5.30;;
71176;SDS011;58877;51.992;4.504;2023-10-08T09:28:17;5.28;;;5.00;;
71176;SDS011;58877;51.992;4.504;2023-10-08T09:30:43;5.89;;;5.37;;
71176;SDS011;58877;51.992;4.504;2023-10-08T09:33:14;5.08;;;4.49;;
71176;SDS011;58877;51.992;4.504;2023-10-08T09:35:42;5.43;;;4.77;;
71176;SDS011;58877;51.992;4.504;2023-10-08T09:38:09;5.03;;;4.38;;
71176;SDS011;58877;51.992;4.504;2023-10-08T09:40:38;4.70;;;4.05;;
71176;SDS011;58877;51.992;4.504;2023-10-08T09:43:12;5.18;;;4.46;;
71176;SDS011;58877;51.992;4.504;2023-10-08T09:45:43;4.20;;;3.64;;
71176;SDS011;58877;51.992;4.504;2023-10-08T09:48:19;4.30;;;3.66;;
71176;SDS011;58877;51.992;4.504;2023-10-08T09:50:56;4.35;;;3.65;;
71176;SDS011;58877;51.992;4.504;2023-10-08T09:54:27;4.13;;;3.48;;
71176;SDS011;58877;51.992;4.504;2023-10-08T09:56:29;4.22;;;3.54;;
71176;SDS011;58877;51.992;4.504;2023-10-08T09:58:58;3.61;;;3.02;;
71176;SDS011;58877;51.992;4.504;2023-10-08T10:01:26;4.54;;;3.77;;
71176;SDS011;58877;51.992;4.504;2023-10-08T10:03:57;5.01;;;4.06;;
71176;SDS011;58877;51.992;4.504;2023-10-08T10:06:25;4.71;;;3.83;;
71176;SDS011;58877;51.992;4.504;2023-10-08T10:08:56;4.90;;;3.99;;
71176;SDS011;58877;51.992;4.504;2023-10-08T10:11:25;4.80;;;3.95;;
71176;SDS011;58877;51.992;4.504;2023-10-08T10:14:11;4.32;;;3.55;;
71176;SDS011;58877;51.992;4.504;2023-10-08T10:16:41;4.69;;;3.79;;
71176;SDS011;58877;51.992;4.504;2023-10-08T10:19:16;5.52;;;4.29;;
71176;SDS011;58877;51.992;4.504;2023-10-08T10:21:48;4.82;;;3.83;;
71176;SDS011;58877;51.992;4.504;2023-10-08T10:24:28;5.08;;;4.01;;
71176;SDS011;58877;51.992;4.504;2023-10-08T10:27:15;5.83;;;4.78;;
71176;SDS011;58877;51.992;4.504;2023-10-08T10:29:42;5.90;;;4.97;;
71176;SDS011;58877;51.992;4.504;2023-10-08T10:32:11;5.96;;;5.06;;
71176;SDS011;58877;51.992;4.504;2023-10-08T10:34:40;4.90;;;4.31;;
71176;SDS011;58877;51.992;4.504;2023-10-08T10:37:11;4.44;;;4.01;;
71176;SDS011;58877;51.992;4.504;2023-10-08T10:39:59;4.44;;;4.01;;
71176;SDS011;58877;51.992;4.504;2023-10-08T10:42:25;5.38;;;4.73;;
71176;SDS011;58877;51.992;4.504;2023-10-08T10:44:57;5.05;;;4.42;;
71176;SDS011;58877;51.992;4.504;2023-10-08T10:47:34;5.01;;;4.32;;
71176;SDS011;58877;51.992;4.504;2023-10-08T10:50:12;5.20;;;4.42;;
71176;SDS011;58877;51.992;4.504;2023-10-08T10:52:52;5.02;;;4.37;;
71176;SDS011;58877;51.992;4.504;2023-10-08T10:55:18;5.58;;;4.85;;
71176;SDS011;58877;51.992;4.504;2023-10-08T10:57:56;4.86;;;4.31;;
71176;SDS011;58877;51.992;4.504;2023-10-08T11:00:29;4.88;;;4.41;;
71176;SDS011;58877;51.992;4.504;2023-10-08T11:03:00;4.64;;;4.16;;
71176;SDS011;58877;51.992;4.504;2023-10-08T11:05:35;4.41;;;3.95;;
71176;SDS011;58877;51.992;4.504;2023-10-08T11:08:05;4.53;;;4.18;;
71176;SDS011;58877;51.992;4.504;2023-10-08T11:10:33;4.41;;;4.11;;
71176;SDS011;58877;51.992;4.504;2023-10-08T11:13:07;4.78;;;4.37;;
71176;SDS011;58877;51.992;4.504;2023-10-08T11:15:42;5.27;;;4.69;;
71176;SDS011;58877;51.992;4.504;2023-10-08T11:18:14;5.26;;;4.59;;
71176;SDS011;58877;51.992;4.504;2023-10-08T11:20:42;5.23;;;4.57;;
71176;SDS011;58877;51.992;4.504;2023-10-08T11:23:09;4.91;;;4.42;;
71176;SDS011;58877;51.992;4.504;2023-10-08T11:25:55;4.84;;;4.38;;
71176;SDS011;58877;51.992;4.504;2023-10-08T11:28:29;5.39;;;4.87;;
71176;SDS011;58877;51.992;4.504;2023-10-08T11:31:10;5.11;;;4.60;;
71176;SDS011;58877;51.992;4.504;2023-10-08T11:33:37;4.86;;;4.26;;
71176;SDS011;58877;51.992;4.504;2023-10-08T11:36:04;4.90;;;4.37;;
71176;SDS011;58877;51.992;4.504;2023-10-08T11:38:38;5.35;;;4.84;;
71176;SDS011;58877;51.992;4.504;2023-10-08T11:41:14;4.56;;;4.19;;
71176;SDS011;58877;51.992;4.504;2023-10-08T11:43:47;4.87;;;4.50;;
71176;SDS011;58877;51.992;4.504;2023-10-08T11:46:31;4.70;;;4.36;;
71176;SDS011;58877;51.992;4.504;2023-10-08T11:49:08;4.89;;;4.55;;
71176;SDS011;58877;51.992;4.504;2023-10-08T11:51:43;4.94;;;4.45;;
71176;SDS011;58877;51.992;4.504;2023-10-08T11:54:11;4.70;;;4.26;;
71176;SDS011;58877;51.992;4.504;2023-10-08T11:56:37;4.57;;;4.28;;
71176;SDS011;58877;51.992;4.504;2023-10-08T11:59:04;4.69;;;4.44;;
71176;SDS011;58877;51.992;4.504;2023-10-08T12:01:37;4.37;;;4.13;;
71176;SDS011;58877;51.992;4.504;2023-10-08T12:04:07;4.34;;;4.03;;
71176;SDS011;58877;51.992;4.504;2023-10-08T12:06:42;4.26;;;3.99;;
71176;SDS011;58877;51.992;4.504;2023-10-08T12:09:17;4.92;;;4.70;;
71176;SDS011;58877;51.992;4.504;2023-10-08T12:11:49;4.45;;;4.31;;
71176;SDS011;58877;51.992;4.504;2023-10-08T12:14:16;4.85;;;4.71;;
71176;SDS011;58877;51.992;4.504;2023-10-08T12:16:43;5.03;;;4.85;;
71176;SDS011;58877;51.992;4.504;2023-10-08T12:19:11;5.43;;;5.21;;
71176;SDS011;58877;51.992;4.504;2023-10-08T12:21:43;5.85;;;5.60;;
71176;SDS011;58877;51.992;4.504;2023-10-08T12:24:13;5.33;;;5.08;;
71176;SDS011;58877;51.992;4.504;2023-10-08T12:26:40;5.39;;;5.16;;
71176;SDS011;58877;51.992;4.504;2023-10-08T12:29:15;5.31;;;5.05;;
71176;SDS011;58877;51.992;4.504;2023-10-08T12:31:42;5.16;;;4.97;;
71176;SDS011;58877;51.992;4.504;2023-10-08T12:34:13;5.22;;;5.12;;
71176;SDS011;58877;51.992;4.504;2023-10-08T12:36:39;5.71;;;5.59;;
71176;SDS011;58877;51.992;4.504;2023-10-08T12:39:05;6.31;;;6.24;;
71176;SDS011;58877;51.992;4.504;2023-10-08T12:41:44;6.75;;;6.70;;
71176;SDS011;58877;51.992;4.504;2023-10-08T12:44:13;5.72;;;5.68;;
71176;SDS011;58877;51.992;4.504;2023-10-08T12:46:48;6.57;;;6.50;;
71176;SDS011;58877;51.992;4.504;2023-10-08T12:49:14;6.29;;;6.19;;
71176;SDS011;58877;51.992;4.504;2023-10-08T12:51:40;6.34;;;6.30;;
71176;SDS011;58877;51.992;4.504;2023-10-08T12:54:13;6.49;;;6.49;;
71176;SDS011;58877;51.992;4.504;2023-10-08T12:56:46;6.27;;;6.24;;
71176;SDS011;58877;51.992;4.504;2023-10-08T12:59:19;5.97;;;5.95;;
71176;SDS011;58877;51.992;4.504;2023-10-08T13:01:49;6.66;;;6.52;;
71176;SDS011;58877;51.992;4.504;2023-10-08T13:04:19;6.71;;;6.56;;
71176;SDS011;58877;51.992;4.504;2023-10-08T13:06:53;6.81;;;6.65;;
71176;SDS011;58877;51.992;4.504;2023-10-08T13:09:23;7.02;;;6.86;;
71176;SDS011;58877;51.992;4.504;2023-10-08T13:11:49;6.79;;;6.57;;
71176;SDS011;58877;51.992;4.504;2023-10-08T13:14:15;6.42;;;6.24;;
71176;SDS011;58877;51.992;4.504;2023-10-08T13:16:41;6.78;;;6.63;;
71176;SDS011;58877;51.992;4.504;2023-10-08T13:19:10;6.81;;;6.56;;
71176;SDS011;58877;51.992;4.504;2023-10-08T13:21:44;6.76;;;6.45;;
71176;SDS011;58877;51.992;4.504;2023-10-08T13:24:13;6.48;;;6.23;;
71176;SDS011;58877;51.992;4.504;2023-10-08T13:26:42;6.61;;;6.42;;
71176;SDS011;58877;51.992;4.504;2023-10-08T13:29:22;6.45;;;6.27;;
71176;SDS011;58877;51.992;4.504;2023-10-08T13:31:58;6.30;;;6.18;;
71176;SDS011;58877;51.992;4.504;2023-10-08T13:34:24;6.06;;;5.96;;
71176;SDS011;58877;51.992;4.504;2023-10-08T13:36:52;6.29;;;6.17;;
71176;SDS011;58877;51.992;4.504;2023-10-08T13:39:21;5.93;;;5.87;;
71176;SDS011;58877;51.992;4.504;2023-10-08T13:41:46;6.38;;;6.30;;
71176;SDS011;58877;51.992;4.504;2023-10-08T13:44:22;6.55;;;6.43;;
71176;SDS011;58877;51.992;4.504;2023-10-08T13:46:54;5.96;;;5.94;;
71176;SDS011;58877;51.992;4.504;2023-10-08T13:49:25;6.44;;;6.37;;
71176;SDS011;58877;51.992;4.504;2023-10-08T14:40:05;6.00;;;5.90;;
71176;SDS011;58877;51.992;4.504;2023-10-08T14:43:07;6.52;;;6.46;;
71176;SDS011;58877;51.992;4.504;2023-10-08T14:49:48;6.65;;;6.62;;
71176;SDS011;58877;51.992;4.504;2023-10-08T14:52:17;6.82;;;6.77;;
71176;SDS011;58877;51.992;4.504;2023-10-08T14:54:44;7.22;;;7.18;;
71176;SDS011;58877;51.992;4.504;2023-10-08T14:57:11;6.34;;;6.31;;
71176;SDS011;58877;51.992;4.504;2023-10-08T14:59:43;6.21;;;6.19;;
71176;SDS011;58877;51.992;4.504;2023-10-08T15:02:16;6.56;;;6.53;;
71176;SDS011;58877;51.992;4.504;2023-10-08T15:04:48;6.86;;;6.86;;
71176;SDS011;58877;51.992;4.504;2023-10-08T15:07:14;6.67;;;6.67;;
71176;SDS011;58877;51.992;4.504;2023-10-08T15:09:45;6.03;;;6.00;;
71176;SDS011;58877;51.992;4.504;2023-10-08T15:12:11;6.26;;;6.23;;
71176;SDS011;58877;51.992;4.504;2023-10-08T15:14:37;5.83;;;5.82;;
71176;SDS011;58877;51.992;4.504;2023-10-08T15:17:07;6.02;;;5.98;;
71176;SDS011;58877;51.992;4.504;2023-10-08T15:19:34;5.62;;;5.59;;
71176;SDS011;58877;51.992;4.504;2023-10-08T15:22:00;5.57;;;5.53;;
71176;SDS011;58877;51.992;4.504;2023-10-08T15:24:27;6.50;;;6.43;;
71176;SDS011;58877;51.992;4.504;2023-10-08T15:26:58;6.22;;;6.14;;
71176;SDS011;58877;51.992;4.504;2023-10-08T15:29:28;6.59;;;6.53;;
71176;SDS011;58877;51.992;4.504;2023-10-08T15:31:58;7.20;;;7.15;;
71176;SDS011;58877;51.992;4.504;2023-10-08T15:34:24;6.88;;;6.82;;
71176;SDS011;58877;51.992;4.504;2023-10-08T15:36:53;7.21;;;7.11;;
71176;SDS011;58877;51.992;4.504;2023-10-08T15:39:19;7.38;;;7.34;;
71176;SDS011;58877;51.992;4.504;2023-10-08T15:41:48;7.27;;;7.19;;
71176;SDS011;58877;51.992;4.504;2023-10-08T15:44:15;6.74;;;6.73;;
71176;SDS011;58877;51.992;4.504;2023-10-08T15:46:46;6.66;;;6.56;;
71176;SDS011;58877;51.992;4.504;2023-10-08T15:49:12;6.41;;;6.34;;
71176;SDS011;58877;51.992;4.504;2023-10-08T15:51:41;5.93;;;5.85;;
71176;SDS011;58877;51.992;4.504;2023-10-08T15:54:07;6.19;;;6.11;;
71176;SDS011;58877;51.992;4.504;2023-10-08T15:56:33;6.02;;;5.86;;
71176;SDS011;58877;51.992;4.504;2023-10-08T15:59:00;5.82;;;5.71;;
71176;SDS011;58877;51.992;4.504;2023-10-08T16:01:26;6.33;;;6.28;;
71176;SDS011;58877;51.992;4.504;2023-10-08T16:03:52;6.05;;;5.96;;
71176;SDS011;58877;51.992;4.504;2023-10-08T16:06:18;6.87;;;6.76;;
71176;SDS011;58877;51.992;4.504;2023-10-08T16:08:44;6.28;;;6.14;;
71176;SDS011;58877;51.992;4.504;2023-10-08T16:11:13;6.12;;;6.06;;
71176;SDS011;58877;51.992;4.504;2023-10-08T16:13:39;5.95;;;5.93;;
71176;SDS011;58877;51.992;4.504;2023-10-08T16:16:08;5.49;;;5.47;;
71176;SDS011;58877;51.992;4.504;2023-10-08T16:18:37;6.38;;;6.33;;